J Lynn Helms Sevier County Information

FAA: DEQ - ICAO: KDEQ

J Lynn Helms Sevier County (Airport) Location

State Arkansas
County Sevier
City De Queen
J Lynn Helms Sevier County (Airport) is 3 miles west of De Queen, AR.
Latitude 34-02-49.2000N
Longitude 094-23-57.7000W
Elevation 354ft

J Lynn Helms Sevier County METARs

METAR KDEQ 190753Z AUTO 09003KT 7SM CLR 21/19 A2978 RMK AO2 SLP077 T02060189
Altimeter 29.78"
Temperature 20.6°C (69.1°F)
Wind 90° at 3KT
Clouds Skies are clear.
Visibility 7.0mi
Time observed: 2022-05-19T07:53:00Z

J Lynn Helms Sevier County (Airport) Details

Status Operational
Activation May 1970
Ownership Public
Usage Public
Chart MEMPHIS
ATC on-site No
Beacon schedule sunset-sunrise
Beacon color clear green

J Lynn Helms Sevier County (Airport) Contacts

Owner SEVIER COUNTY
Owner address 115 N. 3RD STREET, DEQUEEN, AR 71832
Owner phone 870-642-2425
Manager CARL CROSS
Manager address P.O. BOX 578, DARDANELLE, AR 72834
Manager phone (479) 477-0091

J Lynn Helms Sevier County Radio Frequencies

J Lynn Helms Sevier County (Airport) Radio Frequencies

UNICOM 122.8
Common traffic advisory frequency (CTAF) 122.8